Baltimore, Maryland
Traffic Map
Current Weather Conditions
Baltimore, Maryland
Broken Clouds
Broken Clouds
73°
Feels Like: 73°
Wind Chill: 73° Ceiling: 600
Heat Index: 73° Visibility: 7mi
Dew Point: 73° Wind: 5mph
Humidity: 100% Direction: 210° (SSW)
Pressure: 29.76in Gusts: 0mph
Raw Report DataKBWI 230706Z 21004KT 7SM BKN006 BKN055 BKN250 23/23 A2976 RMK AO2 T02280228
Traffic Incident Summary
Active as of:
Severity:
Category:
InformationThere was an issue retrieving the traffic information for this location. Please try a different location or try again shortly.
Advertisements
Track Severe Weather on mobile